KBLI/BLI METAR and TAF weather

Enter ICAO airport designator
Station Type Date Time Source
KBLI METAR 2018/01/19 16:53 UTC NOAA

KBLI 191653Z 15015G25KT 10SM SCT030 OVC075 08/02 A2981 RMK AO2 PK WND 14028/1639 SLP102 T00780022


Station Type Date Time Source
KBLI Decoded METAR 2018/01/19 16:53 UTC NOAA

BELLINGHAM INTERNATIONAL AIRPORT, WA, United States (KBLI) 48-48N 122-32W 50M
Jan 19, 2018 - 11:53 AM EST / 2018.01.19 1653 UTC
Wind: from the SSE (150 degrees) at 17 MPH (15 KT) gusting to 29 MPH (25 KT):0
Visibility: 10 mile(s):0
Sky conditions: overcast
Temperature: 46.0 F (7.8 C)
Dew Point: 36.0 F (2.2 C)
Relative Humidity: 67%
Pressure (altimeter): 29.81 in. Hg (1009 hPa)
ob: KBLI 191653Z 15015G25KT 10SM SCT030 OVC075 08/02 A2981 RMK AO2 PK WND 14028/1639 SLP102 T00780022
cycle: 17

Station Type Date Time Source
KBLI TAF 2018/01/19 12:22 UTC NOAA

TAF KBLI 191120Z 1912/2012 15015G25KT P6SM SCT025 BKN040
FM191400 15015G25KT P6SM -SHRA SCT025 BKN040
FM192100 15015G25KT P6SM -SHRA BKN025 BKN050
FM200400 16015G25KT P6SM -SHRA BKN015 OVC025


Example: see airport list